sensor_id;sensor_type;location;lat;lon;timestamp;pressure;altitude;pressure_sealevel;temperature;humidity
21153;BME280;10734;44.792;20.482;2023-08-08T09:36:24;100359.00;;;22.77;nan
21153;BME280;10734;44.792;20.482;2023-08-08T09:38:56;100366.63;;;23.01;nan
21153;BME280;10734;44.792;20.482;2023-08-08T09:41:23;100355.00;;;23.33;nan
21153;BME280;10734;44.792;20.482;2023-08-08T09:43:51;100354.81;;;23.53;nan
21153;BME280;10734;44.792;20.482;2023-08-08T09:46:19;100377.22;;;23.40;nan
21153;BME280;10734;44.792;20.482;2023-08-08T09:48:47;100369.94;;;23.57;nan
21153;BME280;10734;44.792;20.482;2023-08-08T09:51:14;100341.63;;;23.91;nan
21153;BME280;10734;44.792;20.482;2023-08-08T09:53:41;100351.41;;;23.85;nan
21153;BME280;10734;44.792;20.482;2023-08-08T09:56:09;100349.00;;;23.90;nan
21153;BME280;10734;44.792;20.482;2023-08-08T09:58:35;100338.06;;;24.06;nan
21153;BME280;10734;44.792;20.482;2023-08-08T10:01:02;100335.06;;;24.26;nan
21153;BME280;10734;44.792;20.482;2023-08-08T10:03:31;100338.34;;;24.38;nan
21153;BME280;10734;44.792;20.482;2023-08-08T10:06:00;100330.78;;;24.40;nan
21153;BME280;10734;44.792;20.482;2023-08-08T10:10:56;100345.50;;;24.14;nan
21153;BME280;10734;44.792;20.482;2023-08-08T10:13:24;100349.28;;;24.13;nan
21153;BME280;10734;44.792;20.482;2023-08-08T10:15:52;100346.59;;;24.29;nan
21153;BME280;10734;44.792;20.482;2023-08-08T10:20:50;100342.63;;;23.55;nan
21153;BME280;10734;44.792;20.482;2023-08-08T10:23:18;100328.09;;;23.37;nan
21153;BME280;10734;44.792;20.482;2023-08-08T10:25:47;100336.31;;;23.97;nan
21153;BME280;10734;44.792;20.482;2023-08-08T10:28:18;100324.66;;;24.12;nan
21153;BME280;10734;44.792;20.482;2023-08-08T10:33:23;100331.34;;;24.01;nan
21153;BME280;10734;44.792;20.482;2023-08-08T10:38:17;100344.41;;;24.66;nan
21153;BME280;10734;44.792;20.482;2023-08-08T10:40:45;100329.16;;;24.13;nan
21153;BME280;10734;44.792;20.482;2023-08-08T10:43:12;100371.78;;;24.59;nan
21153;BME280;10734;44.792;20.482;2023-08-08T10:45:42;100342.75;;;25.22;nan
21153;BME280;10734;44.792;20.482;2023-08-08T10:48:11;100348.22;;;24.06;nan
21153;BME280;10734;44.792;20.482;2023-08-08T10:50:40;100352.63;;;23.91;nan
21153;BME280;10734;44.792;20.482;2023-08-08T10:53:09;100327.88;;;23.30;nan
21153;BME280;10734;44.792;20.482;2023-08-08T10:55:38;100341.00;;;24.05;nan
21153;BME280;10734;44.792;20.482;2023-08-08T10:58:08;100347.03;;;24.67;nan
21153;BME280;10734;44.792;20.482;2023-08-08T11:00:37;100348.59;;;25.11;nan
21153;BME280;10734;44.792;20.482;2023-08-08T11:03:06;100340.84;;;25.31;nan
21153;BME280;10734;44.792;20.482;2023-08-08T11:05:34;100336.81;;;25.49;nan
21153;BME280;10734;44.792;20.482;2023-08-08T11:08:02;100340.78;;;24.49;nan
21153;BME280;10734;44.792;20.482;2023-08-08T11:13:03;100330.44;;;25.57;nan
21153;BME280;10734;44.792;20.482;2023-08-08T11:20:30;100346.72;;;25.91;nan
21153;BME280;10734;44.792;20.482;2023-08-08T11:25:26;100343.38;;;25.48;nan
21153;BME280;10734;44.792;20.482;2023-08-08T11:27:55;100332.34;;;25.48;nan
21153;BME280;10734;44.792;20.482;2023-08-08T11:30:24;100335.84;;;25.26;nan
21153;BME280;10734;44.792;20.482;2023-08-08T11:32:51;100340.13;;;26.01;nan
21153;BME280;10734;44.792;20.482;2023-08-08T11:35:24;100330.22;;;26.46;nan
21153;BME280;10734;44.792;20.482;2023-08-08T11:42:46;100336.34;;;25.38;nan
21153;BME280;10734;44.792;20.482;2023-08-08T11:45:13;100310.00;;;26.22;nan
21153;BME280;10734;44.792;20.482;2023-08-08T11:47:40;100317.63;;;26.12;nan
21153;BME280;10734;44.792;20.482;2023-08-08T11:50:10;100298.09;;;25.90;nan
21153;BME280;10734;44.792;20.482;2023-08-08T11:52:40;100309.56;;;26.10;nan
21153;BME280;10734;44.792;20.482;2023-08-08T11:55:09;100319.03;;;26.16;nan
21153;BME280;10734;44.792;20.482;2023-08-08T11:57:36;100308.47;;;26.42;nan
21153;BME280;10734;44.792;20.482;2023-08-08T12:00:11;100294.53;;;26.67;nan
21153;BME280;10734;44.792;20.482;2023-08-08T12:02:41;100300.69;;;27.15;nan
21153;BME280;10734;44.792;20.482;2023-08-08T12:05:12;100296.44;;;27.57;nan
21153;BME280;10734;44.792;20.482;2023-08-08T12:07:40;100300.72;;;28.04;nan
21153;BME280;10734;44.792;20.482;2023-08-08T12:10:20;100297.19;;;27.95;nan
21153;BME280;10734;44.792;20.482;2023-08-08T12:12:56;100301.50;;;27.53;nan
21153;BME280;10734;44.792;20.482;2023-08-08T12:15:35;100292.22;;;27.17;nan
21153;BME280;10734;44.792;20.482;2023-08-08T12:18:03;100292.31;;;26.85;nan
21153;BME280;10734;44.792;20.482;2023-08-08T12:20:30;100265.34;;;26.41;nan
21153;BME280;10734;44.792;20.482;2023-08-08T12:22:58;100294.69;;;26.88;nan
21153;BME280;10734;44.792;20.482;2023-08-08T12:27:52;100272.41;;;28.23;nan
21153;BME280;10734;44.792;20.482;2023-08-08T12:30:19;100270.94;;;28.06;nan
21153;BME280;10734;44.792;20.482;2023-08-08T12:32:45;100273.44;;;28.22;nan
21153;BME280;10734;44.792;20.482;2023-08-08T12:35:12;100261.75;;;28.85;nan
21153;BME280;10734;44.792;20.482;2023-08-08T12:37:39;100274.34;;;29.09;nan
21153;BME280;10734;44.792;20.482;2023-08-08T12:40:06;100269.44;;;28.89;nan
21153;BME280;10734;44.792;20.482;2023-08-08T12:42:34;100268.59;;;28.89;nan
21153;BME280;10734;44.792;20.482;2023-08-08T12:45:01;100266.59;;;27.00;nan
21153;BME280;10734;44.792;20.482;2023-08-08T12:47:27;100263.44;;;27.41;nan
21153;BME280;10734;44.792;20.482;2023-08-08T12:49:56;100268.72;;;28.38;nan
21153;BME280;10734;44.792;20.482;2023-08-08T12:52:22;100269.47;;;29.45;nan
21153;BME280;10734;44.792;20.482;2023-08-08T12:54:51;100263.06;;;30.28;nan
21153;BME280;10734;44.792;20.482;2023-08-08T12:57:18;100257.06;;;30.24;nan
21153;BME280;10734;44.792;20.482;2023-08-08T12:59:45;100262.16;;;29.66;nan
21153;BME280;10734;44.792;20.482;2023-08-08T13:02:12;100258.81;;;28.93;nan
21153;BME280;10734;44.792;20.482;2023-08-08T13:04:39;100253.56;;;28.34;nan
21153;BME280;10734;44.792;20.482;2023-08-08T13:07:06;100249.47;;;28.72;nan
21153;BME280;10734;44.792;20.482;2023-08-08T13:09:33;100257.66;;;29.37;nan
21153;BME280;10734;44.792;20.482;2023-08-08T13:12:00;100251.13;;;29.16;nan
21153;BME280;10734;44.792;20.482;2023-08-08T13:14:27;100241.03;;;28.81;nan
21153;BME280;10734;44.792;20.482;2023-08-08T13:16:54;100237.84;;;27.68;nan
21153;BME280;10734;44.792;20.482;2023-08-08T13:19:21;100237.22;;;27.51;nan
21153;BME280;10734;44.792;20.482;2023-08-08T13:21:52;100240.13;;;28.52;nan
21153;BME280;10734;44.792;20.482;2023-08-08T13:24:19;100239.94;;;27.07;nan
21153;BME280;10734;44.792;20.482;2023-08-08T13:26:47;100239.03;;;28.32;nan
21153;BME280;10734;44.792;20.482;2023-08-08T13:29:14;100232.31;;;29.40;nan
21153;BME280;10734;44.792;20.482;2023-08-08T13:31:53;100229.25;;;29.28;nan
21153;BME280;10734;44.792;20.482;2023-08-08T13:34:19;100238.28;;;29.78;nan
21153;BME280;10734;44.792;20.482;2023-08-08T13:36:46;100234.22;;;29.39;nan
21153;BME280;10734;44.792;20.482;2023-08-08T13:39:13;100230.47;;;30.02;nan
21153;BME280;10734;44.792;20.482;2023-08-08T13:41:40;100228.81;;;30.14;nan
21153;BME280;10734;44.792;20.482;2023-08-08T13:44:07;100222.66;;;30.25;nan
21153;BME280;10734;44.792;20.482;2023-08-08T13:46:33;100237.19;;;29.38;nan
21153;BME280;10734;44.792;20.482;2023-08-08T13:49:00;100223.03;;;29.61;nan
21153;BME280;10734;44.792;20.482;2023-08-08T13:51:27;100221.31;;;30.14;nan
21153;BME280;10734;44.792;20.482;2023-08-08T13:53:54;100222.44;;;30.40;nan
21153;BME280;10734;44.792;20.482;2023-08-08T13:56:20;100210.88;;;29.62;nan
21153;BME280;10734;44.792;20.482;2023-08-08T13:58:47;100231.72;;;28.88;nan
21153;BME280;10734;44.792;20.482;2023-08-08T14:01:14;100221.81;;;29.70;nan
21153;BME280;10734;44.792;20.482;2023-08-08T14:03:41;100224.78;;;30.30;nan
21153;BME280;10734;44.792;20.482;2023-08-08T14:06:08;100222.75;;;30.85;nan
21153;BME280;10734;44.792;20.482;2023-08-08T14:08:35;100217.09;;;31.18;nan
21153;BME280;10734;44.792;20.482;2023-08-08T14:11:02;100218.41;;;31.29;nan
21153;BME280;10734;44.792;20.482;2023-08-08T14:13:28;100220.28;;;31.48;nan
21153;BME280;10734;44.792;20.482;2023-08-08T14:15:55;100221.69;;;31.71;nan
21153;BME280;10734;44.792;20.482;2023-08-08T14:18:22;100223.28;;;31.47;nan
21153;BME280;10734;44.792;20.482;2023-08-08T14:20:49;100216.91;;;30.73;nan
21153;BME280;10734;44.792;20.482;2023-08-08T14:23:16;100211.97;;;30.35;nan
21153;BME280;10734;44.792;20.482;2023-08-08T14:25:42;100219.25;;;31.36;nan
21153;BME280;10734;44.792;20.482;2023-08-08T14:28:09;100213.88;;;31.41;nan
21153;BME280;10734;44.792;20.482;2023-08-08T14:30:36;100228.00;;;31.46;nan
21153;BME280;10734;44.792;20.482;2023-08-08T14:33:03;100226.97;;;31.34;nan
21153;BME280;10734;44.792;20.482;2023-08-08T14:35:30;100217.84;;;29.86;nan
21153;BME280;10734;44.792;20.482;2023-08-08T14:37:57;100214.13;;;30.40;nan
21153;BME280;10734;44.792;20.482;2023-08-08T14:40:24;100215.88;;;30.54;nan
21153;BME280;10734;44.792;20.482;2023-08-08T14:42:50;100220.16;;;30.90;nan
21153;BME280;10734;44.792;20.482;2023-08-08T14:45:18;100220.97;;;31.17;nan
21153;BME280;10734;44.792;20.482;2023-08-08T14:47:44;100217.94;;;31.45;nan
21153;BME280;10734;44.792;20.482;2023-08-08T14:50:11;100210.72;;;30.98;nan
21153;BME280;10734;44.792;20.482;2023-08-08T14:52:38;100216.81;;;29.52;nan
21153;BME280;10734;44.792;20.482;2023-08-08T14:55:05;100212.53;;;28.65;nan
21153;BME280;10734;44.792;20.482;2023-08-08T14:57:32;100206.28;;;28.14;nan
21153;BME280;10734;44.792;20.482;2023-08-08T15:00:00;100213.78;;;26.80;nan
21153;BME280;10734;44.792;20.482;2023-08-08T15:02:30;100204.19;;;26.91;nan
21153;BME280;10734;44.792;20.482;2023-08-08T15:04:57;100205.72;;;27.08;nan
21153;BME280;10734;44.792;20.482;2023-08-08T15:07:24;100214.50;;;27.11;nan
21153;BME280;10734;44.792;20.482;2023-08-08T15:09:51;100206.16;;;26.82;nan
21153;BME280;10734;44.792;20.482;2023-08-08T15:12:17;100200.63;;;26.44;nan
21153;BME280;10734;44.792;20.482;2023-08-08T15:14:44;100210.75;;;26.06;nan
21153;BME280;10734;44.792;20.482;2023-08-08T15:17:11;100209.44;;;25.93;nan
21153;BME280;10734;44.792;20.482;2023-08-08T15:24:31;100201.66;;;26.66;nan
21153;BME280;10734;44.792;20.482;2023-08-08T15:27:00;100198.59;;;27.13;nan
21153;BME280;10734;44.792;20.482;2023-08-08T15:29:27;100202.28;;;26.91;nan
21153;BME280;10734;44.792;20.482;2023-08-08T15:34:21;100205.00;;;26.76;nan
21153;BME280;10734;44.792;20.482;2023-08-08T15:36:48;100209.69;;;26.76;nan
21153;BME280;10734;44.792;20.482;2023-08-08T15:39:15;100202.78;;;26.57;nan
21153;BME280;10734;44.792;20.482;2023-08-08T15:41:42;100194.50;;;26.34;nan
21153;BME280;10734;44.792;20.482;2023-08-08T15:44:10;100201.81;;;26.50;nan
21153;BME280;10734;44.792;20.482;2023-08-08T15:46:36;100206.09;;;26.52;nan
21153;BME280;10734;44.792;20.482;2023-08-08T15:49:05;100195.69;;;27.07;nan
21153;BME280;10734;44.792;20.482;2023-08-08T15:51:42;100196.63;;;27.73;nan
21153;BME280;10734;44.792;20.482;2023-08-08T15:54:08;100191.16;;;27.95;nan
21153;BME280;10734;44.792;20.482;2023-08-08T15:56:35;100194.81;;;28.38;nan
21153;BME280;10734;44.792;20.482;2023-08-08T15:59:05;100189.00;;;27.24;nan
21153;BME280;10734;44.792;20.482;2023-08-08T16:01:32;100219.69;;;27.95;nan
21153;BME280;10734;44.792;20.482;2023-08-08T16:03:59;100199.31;;;28.39;nan
21153;BME280;10734;44.792;20.482;2023-08-08T16:06:25;100202.13;;;28.67;nan
21153;BME280;10734;44.792;20.482;2023-08-08T16:08:52;100192.72;;;28.40;nan
21153;BME280;10734;44.792;20.482;2023-08-08T16:11:19;100194.72;;;28.74;nan
21153;BME280;10734;44.792;20.482;2023-08-08T16:13:46;100198.91;;;28.92;nan
21153;BME280;10734;44.792;20.482;2023-08-08T16:16:12;100195.66;;;28.17;nan
21153;BME280;10734;44.792;20.482;2023-08-08T16:18:39;100193.63;;;27.53;nan
21153;BME280;10734;44.792;20.482;2023-08-08T16:21:06;100195.66;;;27.45;nan
21153;BME280;10734;44.792;20.482;2023-08-08T16:23:33;100188.16;;;27.60;nan
21153;BME280;10734;44.792;20.482;2023-08-08T16:26:00;100199.16;;;27.53;nan
21153;BME280;10734;44.792;20.482;2023-08-08T16:28:27;100199.41;;;27.73;nan
21153;BME280;10734;44.792;20.482;2023-08-08T16:30:55;100204.84;;;27.81;nan
21153;BME280;10734;44.792;20.482;2023-08-08T16:33:22;100191.88;;;27.67;nan
21153;BME280;10734;44.792;20.482;2023-08-08T16:35:49;100196.22;;;27.91;nan
21153;BME280;10734;44.792;20.482;2023-08-08T16:38:16;100187.44;;;27.36;nan
21153;BME280;10734;44.792;20.482;2023-08-08T16:40:44;100200.50;;;26.60;nan
21153;BME280;10734;44.792;20.482;2023-08-08T16:43:11;100204.13;;;26.38;nan
21153;BME280;10734;44.792;20.482;2023-08-08T16:45:38;100194.63;;;26.17;nan
21153;BME280;10734;44.792;20.482;2023-08-08T16:48:05;100208.50;;;25.78;nan
21153;BME280;10734;44.792;20.482;2023-08-08T16:52:59;100201.34;;;25.13;nan
21153;BME280;10734;44.792;20.482;2023-08-08T16:55:26;100211.72;;;24.87;nan
21153;BME280;10734;44.792;20.482;2023-08-08T16:57:53;100209.66;;;24.72;nan
21153;BME280;10734;44.792;20.482;2023-08-08T17:00:19;100198.47;;;24.82;nan
21153;BME280;10734;44.792;20.482;2023-08-08T17:02:46;100198.78;;;25.04;nan
21153;BME280;10734;44.792;20.482;2023-08-08T17:07:40;100198.41;;;25.07;nan
21153;BME280;10734;44.792;20.482;2023-08-08T17:10:07;100212.56;;;25.04;nan
21153;BME280;10734;44.792;20.482;2023-08-08T17:15:00;100195.94;;;24.56;nan
21153;BME280;10734;44.792;20.482;2023-08-08T17:17:27;100186.50;;;24.42;nan
21153;BME280;10734;44.792;20.482;2023-08-08T17:27:14;100207.28;;;23.61;nan
21153;BME280;10734;44.792;20.482;2023-08-08T17:32:07;100199.06;;;23.27;nan
21153;BME280;10734;44.792;20.482;2023-08-08T17:34:35;100204.28;;;23.04;nan
